Time;durP1;ratioP1;P1;durP2;ratioP2;P2;SDS_P1;SDS_P2;PMS_P1;PMS_P2;Temp;Humidity;BMP_temperature;BMP_pressure;BME280_temperature;BME280_humidity;BME280_pressure;Samples;Min_cycle;Max_cycle;Signal;HPM_P1;HPM_P2
2023/03/26 00:01:32;;;;;;;6.28;1.75;;;8.10;99.90;;;;;;6182556;23;20345;-88
2023/03/26 00:03:58;;;;;;;13.68;2.38;;;8.10;99.90;;;;;;6156648;23;20017;-87
2023/03/26 00:06:29;;;;;;;14.35;3.20;;;8.00;99.90;;;;;;6154703;23;20013;-87
2023/03/26 00:08:57;;;;;;;13.90;3.45;;;8.00;99.90;;;;;;6185598;23;20119;-88
2023/03/26 00:11:26;;;;;;;11.63;3.38;;;8.00;99.90;;;;;;6157807;23;20063;-88
2023/03/26 00:13:55;;;;;;;16.13;3.90;;;8.00;99.90;;;;;;6157157;23;20020;-88
2023/03/26 00:16:22;;;;;;;10.02;2.47;;;7.90;99.90;;;;;;6182512;23;20017;-87
2023/03/26 00:18:50;;;;;;;12.20;3.67;;;7.90;99.90;;;;;;6160865;23;20465;-88
2023/03/26 00:21:20;;;;;;;6.47;2.03;;;7.90;99.90;;;;;;6162217;23;20017;-87
2023/03/26 00:23:47;;;;;;;16.17;3.85;;;7.90;99.90;;;;;;6194195;23;20005;-87
2023/03/26 00:26:14;;;;;;;13.05;3.47;;;7.90;99.90;;;;;;6175905;23;20060;-87
2023/03/26 00:28:41;;;;;;;14.82;3.78;;;7.90;99.90;;;;;;6173680;23;20009;-87
2023/03/26 00:31:11;;;;;;;8.80;2.53;;;7.90;99.90;;;;;;6182823;23;20013;-87
2023/03/26 00:33:39;;;;;;;7.82;1.77;;;7.80;99.90;;;;;;6154880;23;20059;-86
2023/03/26 00:36:09;;;;;;;12.68;3.67;;;7.80;99.90;;;;;;6154428;23;20028;-88
2023/03/26 00:38:37;;;;;;;11.00;3.20;;;7.90;99.90;;;;;;6128944;23;20052;-87
2023/03/26 00:41:06;;;;;;;15.23;3.83;;;7.90;99.90;;;;;;6154212;23;20017;-87
2023/03/26 00:43:34;;;;;;;12.88;3.75;;;7.90;99.90;;;;;;6153874;23;20035;-88
2023/03/26 00:46:01;;;;;;;7.78;1.70;;;7.90;99.90;;;;;;6160246;23;20249;-88
2023/03/26 00:48:28;;;;;;;9.10;2.72;;;7.80;99.90;;;;;;6186963;23;20186;-87
2023/03/26 00:50:56;;;;;;;13.07;3.85;;;7.70;99.90;;;;;;6155799;23;20028;-87
2023/03/26 00:53:22;;;;;;;13.07;3.60;;;7.60;99.90;;;;;;6177521;23;20052;-88
2023/03/26 00:55:48;;;;;;;13.20;3.60;;;7.60;99.90;;;;;;6154641;23;20096;-87
2023/03/26 00:58:14;;;;;;;12.85;2.13;;;7.60;99.90;;;;;;6178640;23;20447;-88
2023/03/26 01:00:56;;;;;;;12.75;3.88;;;7.50;99.90;;;;;;6179024;23;20021;-87
2023/03/26 01:03:24;;;;;;;15.07;4.30;;;7.50;99.90;;;;;;6177183;23;20061;-87
2023/03/26 01:05:56;;;;;;;8.23;2.15;;;7.50;99.90;;;;;;6178438;23;20052;-87
2023/03/26 01:08:27;;;;;;;16.48;4.30;;;7.50;99.90;;;;;;6179571;23;20059;-87
2023/03/26 01:11:01;;;;;;;12.30;2.35;;;7.60;99.90;;;;;;6178333;23;20382;-87
2023/03/26 01:13:30;;;;;;;13.57;4.00;;;7.50;99.90;;;;;;6176790;23;20021;-87
2023/03/26 01:16:00;;;;;;;11.68;4.20;;;7.40;99.90;;;;;;6177950;23;20013;-88
2023/03/26 01:18:32;;;;;;;7.80;2.30;;;7.30;99.90;;;;;;6174938;23;20075;-88
2023/03/26 01:21:08;;;;;;;9.15;2.20;;;7.40;99.90;;;;;;6176874;23;20022;-88
2023/03/26 01:23:50;;;;;;;11.93;3.92;;;7.30;99.90;;;;;;6176857;23;20334;-88
2023/03/26 01:26:28;;;;;;;8.27;1.90;;;7.20;99.90;;;;;;6175995;23;20171;-88
2023/03/26 01:28:57;;;;;;;6.25;1.88;;;7.20;99.90;;;;;;6175451;23;20024;-89
2023/03/26 01:31:38;;;;;;;6.93;2.17;;;7.20;99.90;;;;;;6177673;23;20021;-89
2023/03/26 01:34:36;;;;;;;18.00;4.15;;;7.10;99.90;;;;;;6176441;23;20112;-88
2023/03/26 01:37:12;;;;;;;5.65;1.50;;;7.10;99.90;;;;;;6176688;23;20107;-88
2023/03/26 01:39:56;;;;;;;14.70;3.58;;;7.00;99.90;;;;;;6177017;23;20021;-88
2023/03/26 01:42:50;;;;;;;15.40;3.92;;;7.00;99.90;;;;;;6178060;23;20013;-88
2023/03/26 01:45:22;;;;;;;12.38;2.20;;;7.00;99.90;;;;;;6177062;23;20067;-88
2023/03/26 01:47:49;;;;;;;8.75;2.17;;;6.90;99.90;;;;;;6178264;23;20023;-87
2023/03/26 01:50:15;;;;;;;9.23;1.95;;;6.80;99.90;;;;;;6177572;23;20055;-86
2023/03/26 01:52:40;;;;;;;6.40;2.03;;;6.70;99.90;;;;;;6150624;23;20013;-87
2023/03/26 01:55:11;;;;;;;14.00;4.15;;;6.70;99.90;;;;;;6178085;23;20075;-87
2023/03/26 01:58:06;;;;;;;6.07;1.67;;;6.70;99.90;;;;;;6149844;23;20005;-88
2023/03/26 02:00:48;;;;;;;11.13;2.13;;;6.60;99.90;;;;;;6177689;23;20017;-87
2023/03/26 02:03:26;;;;;;;12.02;2.08;;;6.60;99.90;;;;;;6150780;23;20315;-88
2023/03/26 02:06:22;;;;;;;9.65;2.00;;;6.60;99.90;;;;;;6178244;23;20088;-87
2023/03/26 02:08:56;;;;;;;13.35;4.00;;;6.60;99.90;;;;;;6151811;23;20021;-87
2023/03/26 02:11:21;;;;;;;14.50;3.85;;;6.60;99.90;;;;;;6150687;23;20017;-87
2023/03/26 02:13:48;;;;;;;11.15;1.92;;;6.70;99.90;;;;;;6177571;23;20013;-87
2023/03/26 02:16:16;;;;;;;14.45;4.00;;;6.70;99.90;;;;;;6150985;23;20342;-87
2023/03/26 02:18:43;;;;;;;10.07;2.13;;;6.70;99.90;;;;;;6151768;23;20019;-88
2023/03/26 02:21:12;;;;;;;11.07;2.47;;;6.70;99.90;;;;;;6177038;23;20036;-88
2023/03/26 02:23:45;;;;;;;9.57;2.05;;;6.70;99.90;;;;;;6151665;23;20378;-87
2023/03/26 02:26:13;;;;;;;8.00;2.42;;;6.70;99.90;;;;;;6175281;23;20013;-87
2023/03/26 02:28:39;;;;;;;11.20;1.88;;;6.60;99.90;;;;;;6149622;23;20043;-87
2023/03/26 02:31:08;;;;;;;13.38;3.85;;;6.70;99.90;;;;;;6177749;23;20017;-87
2023/03/26 02:33:34;;;;;;;8.65;1.98;;;6.60;99.90;;;;;;6178178;23;20021;-88
2023/03/26 02:36:03;;;;;;;17.45;4.60;;;6.70;99.90;;;;;;6178123;23;20005;-87
2023/03/26 02:38:32;;;;;;;11.38;2.25;;;6.60;99.90;;;;;;6177148;23;20009;-87
2023/03/26 02:40:58;;;;;;;12.13;2.45;;;6.60;99.90;;;;;;6177334;23;20020;-87
2023/03/26 02:43:24;;;;;;;10.43;2.08;;;6.50;99.90;;;;;;6150443;23;20021;-87
2023/03/26 02:45:50;;;;;;;12.15;2.53;;;6.50;99.90;;;;;;6173940;23;20020;-87
2023/03/26 02:48:16;;;;;;;14.15;4.20;;;6.40;99.90;;;;;;6175883;23;20076;-87
2023/03/26 02:50:42;;;;;;;16.08;4.63;;;6.50;99.90;;;;;;6175526;23;20025;-87
2023/03/26 02:53:08;;;;;;;12.27;2.42;;;6.50;99.90;;;;;;6176899;23;20085;-87
2023/03/26 02:55:34;;;;;;;15.50;4.32;;;6.40;99.90;;;;;;6175490;23;20017;-87
2023/03/26 02:57:59;;;;;;;10.15;2.47;;;6.40;99.90;;;;;;6175044;23;20083;-87
2023/03/26 03:00:25;;;;;;;17.35;4.85;;;6.40;99.90;;;;;;6151219;23;20425;-87
2023/03/26 03:02:56;;;;;;;9.63;2.75;;;6.30;99.90;;;;;;6180067;23;20020;-87
2023/03/26 03:05:25;;;;;;;;;;;6.30;99.90;;;;;;6179500;23;20483;-87
2023/03/26 03:07:51;;;;;;;9.25;2.05;;;6.20;99.90;;;;;;6179918;23;19916;-87
2023/03/26 03:10:20;;;;;;;9.88;2.13;;;6.10;99.90;;;;;;6176095;23;20500;-87
2023/03/26 03:12:46;;;;;;;12.70;4.22;;;6.10;99.90;;;;;;6177183;23;20013;-87
2023/03/26 03:15:12;;;;;;;8.50;2.15;;;6.10;99.90;;;;;;6178995;23;20017;-87
2023/03/26 03:17:39;;;;;;;10.95;2.47;;;6.00;99.90;;;;;;6180399;23;20017;-87
2023/03/26 03:20:08;;;;;;;10.50;3.10;;;5.90;99.90;;;;;;6177910;23;20092;-87
2023/03/26 03:22:34;;;;;;;13.90;4.32;;;5.90;99.90;;;;;;6178064;23;20052;-88
2023/03/26 03:25:01;;;;;;;13.13;4.13;;;5.90;99.90;;;;;;6176146;23;20013;-87
2023/03/26 03:27:26;;;;;;;12.05;2.20;;;6.00;99.90;;;;;;6178528;23;20507;-86
2023/03/26 03:29:52;;;;;;;12.68;3.85;;;5.90;99.90;;;;;;6179531;23;20505;-87
2023/03/26 03:32:18;;;;;;;9.30;2.65;;;5.90;99.90;;;;;;6175783;23;20446;-89
2023/03/26 03:34:44;;;;;;;8.15;1.90;;;5.80;99.90;;;;;;6153244;23;20027;-87
2023/03/26 03:37:10;;;;;;;9.50;1.95;;;5.80;99.90;;;;;;6177059;23;20009;-87
2023/03/26 03:39:36;;;;;;;10.48;3.47;;;5.70;99.90;;;;;;6176659;23;20017;-87
2023/03/26 03:42:01;;;;;;;14.48;4.32;;;5.70;99.90;;;;;;6177232;23;20013;-87
2023/03/26 03:44:27;;;;;;;10.90;2.33;;;5.70;99.90;;;;;;6178497;23;20079;-87
2023/03/26 03:46:54;;;;;;;7.47;1.75;;;5.60;99.90;;;;;;6177686;23;20342;-87
2023/03/26 03:49:20;;;;;;;12.70;4.30;;;5.50;99.90;;;;;;6150398;23;20020;-87
2023/03/26 03:51:46;;;;;;;10.68;3.80;;;5.50;99.90;;;;;;6151389;23;20016;-86
2023/03/26 03:54:12;;;;;;;8.25;2.03;;;5.50;99.90;;;;;;6176628;23;20009;-86
2023/03/26 03:56:38;;;;;;;9.55;2.30;;;5.40;99.90;;;;;;6150623;23;20080;-87
2023/03/26 03:59:04;;;;;;;5.80;1.90;;;5.30;99.90;;;;;;6151056;23;20048;-87
2023/03/26 04:01:30;;;;;;;14.50;3.90;;;5.30;99.90;;;;;;6175978;23;20056;-86
2023/03/26 04:03:56;;;;;;;11.07;2.50;;;5.20;99.90;;;;;;6178384;23;20009;-87
2023/03/26 04:06:24;;;;;;;10.98;2.50;;;5.20;99.90;;;;;;6150261;23;20505;-87
2023/03/26 04:08:50;;;;;;;10.18;2.20;;;5.10;99.90;;;;;;6176476;23;20009;-87
2023/03/26 04:11:16;;;;;;;13.63;4.28;;;5.10;99.90;;;;;;6148253;23;20346;-87
2023/03/26 04:13:43;;;;;;;7.05;2.10;;;5.20;99.90;;;;;;6126216;23;20017;-87
2023/03/26 04:16:09;;;;;;;8.73;2.22;;;5.10;99.90;;;;;;6150494;23;20019;-87
2023/03/26 04:18:36;;;;;;;12.32;4.55;;;5.20;99.90;;;;;;6177095;23;20047;-85
2023/03/26 04:21:06;;;;;;;13.70;4.53;;;5.20;99.90;;;;;;6150917;23;20019;-87
2023/03/26 04:23:33;;;;;;;9.77;2.58;;;5.30;99.90;;;;;;6150371;23;20017;-87
2023/03/26 04:26:05;;;;;;;8.10;2.25;;;5.20;99.90;;;;;;6176560;23;20013;-87
2023/03/26 04:28:41;;;;;;;14.50;2.80;;;5.20;99.90;;;;;;6176225;23;20017;-87
2023/03/26 04:31:12;;;;;;;16.33;5.50;;;5.20;99.90;;;;;;6148635;23;20346;-87
2023/03/26 04:33:38;;;;;;;15.82;4.95;;;5.30;99.90;;;;;;6149798;23;20019;-87
2023/03/26 04:36:05;;;;;;;12.77;4.32;;;5.30;99.90;;;;;;6149878;23;20088;-87
2023/03/26 04:38:36;;;;;;;10.50;2.30;;;5.40;99.90;;;;;;6149592;23;20019;-87
2023/03/26 04:41:02;;;;;;;12.00;2.75;;;5.40;99.90;;;;;;6150035;23;20013;-87
2023/03/26 04:43:29;;;;;;;9.40;2.40;;;5.40;99.90;;;;;;6126245;23;20442;-90
2023/03/26 04:45:55;;;;;;;10.75;2.67;;;5.40;99.90;;;;;;6103387;23;1119483;-84
2023/03/26 04:48:21;;;;;;;15.23;5.20;;;5.40;99.90;;;;;;6178234;23;20505;-86
2023/03/26 04:50:48;;;;;;;9.77;3.08;;;5.50;99.90;;;;;;6177402;23;20029;-86
2023/03/26 04:53:16;;;;;;;11.82;4.30;;;5.50;99.90;;;;;;6177117;23;20024;-86
2023/03/26 04:55:54;;;;;;;11.05;3.17;;;5.50;99.90;;;;;;6176005;23;20024;-86
2023/03/26 04:58:20;;;;;;;13.95;4.80;;;5.50;99.90;;;;;;6177882;23;20086;-86
2023/03/26 05:00:46;;;;;;;9.35;2.45;;;5.60;99.90;;;;;;6176801;23;20017;-86
2023/03/26 05:03:12;;;;;;;8.98;2.38;;;5.60;99.90;;;;;;6175355;23;20342;-86
2023/03/26 05:05:39;;;;;;;12.10;2.72;;;5.60;99.90;;;;;;6177325;23;20013;-86
2023/03/26 05:08:05;;;;;;;9.45;2.33;;;5.60;99.90;;;;;;6175790;23;20017;-86
2023/03/26 05:10:31;;;;;;;9.40;2.85;;;5.70;99.90;;;;;;6178692;23;20020;-86
2023/03/26 05:12:56;;;;;;;13.48;5.22;;;5.70;99.90;;;;;;6176814;23;20375;-85
2023/03/26 05:15:22;;;;;;;17.05;5.72;;;5.80;99.90;;;;;;6178188;23;20093;-86
2023/03/26 05:17:48;;;;;;;9.05;2.40;;;5.80;99.90;;;;;;6177712;23;20016;-86
2023/03/26 05:20:23;;;;;;;10.10;2.90;;;5.80;99.90;;;;;;6175425;23;20075;-86
2023/03/26 05:22:49;;;;;;;14.63;5.55;;;5.80;99.90;;;;;;6176834;23;20437;-86
2023/03/26 05:25:17;;;;;;;11.07;3.15;;;5.90;99.90;;;;;;6176014;23;20344;-86
2023/03/26 05:27:43;;;;;;;14.00;5.80;;;5.90;99.90;;;;;;6177261;23;20024;-86
2023/03/26 05:30:11;;;;;;;18.85;5.80;;;6.00;99.90;;;;;;6176633;23;20017;-86
2023/03/26 05:32:36;;;;;;;10.70;2.92;;;6.00;99.90;;;;;;6178598;23;20016;-86
2023/03/26 05:35:03;;;;;;;10.48;2.88;;;6.10;99.90;;;;;;6177206;23;20342;-87
2023/03/26 05:37:29;;;;;;;11.00;3.67;;;6.00;99.90;;;;;;6174885;23;20426;-86
2023/03/26 05:39:56;;;;;;;12.43;5.07;;;6.10;99.90;;;;;;6178371;23;20013;-86
2023/03/26 05:42:22;;;;;;;12.68;5.20;;;6.10;99.90;;;;;;6175130;23;20013;-86
2023/03/26 05:44:47;;;;;;;15.13;5.55;;;6.20;99.90;;;;;;6176715;23;20027;-86
2023/03/26 05:47:13;;;;;;;12.40;3.25;;;6.20;99.90;;;;;;6177852;23;20017;-86
2023/03/26 05:49:39;;;;;;;13.30;2.80;;;6.20;99.90;;;;;;6176158;23;20013;-86
2023/03/26 05:52:04;;;;;;;16.33;6.47;;;6.20;99.90;;;;;;6178228;23;20304;-86
2023/03/26 05:54:30;;;;;;;10.70;3.20;;;6.30;99.90;;;;;;6175658;23;20302;-87
2023/03/26 05:56:56;;;;;;;14.75;6.25;;;6.30;99.90;;;;;;6178800;23;20032;-87
2023/03/26 05:59:22;;;;;;;9.13;3.05;;;6.30;99.90;;;;;;6175506;23;20021;-87
2023/03/26 06:01:49;;;;;;;9.40;3.22;;;6.30;99.90;;;;;;6151274;23;20339;-88
2023/03/26 06:04:16;;;;;;;11.82;5.07;;;6.30;99.90;;;;;;6175263;23;20110;-93
2023/03/26 06:06:43;;;;;;;11.10;5.15;;;6.30;99.90;;;;;;6177991;23;20068;-90
2023/03/26 06:09:12;;;;;;;14.15;5.72;;;6.40;99.90;;;;;;6177829;23;20016;-87
2023/03/26 06:11:38;;;;;;;15.00;5.57;;;6.50;99.90;;;;;;6152384;23;20024;-88
2023/03/26 06:14:04;;;;;;;14.23;5.57;;;6.50;99.90;;;;;;6176496;23;20129;-90
2023/03/26 06:16:31;;;;;;;11.70;3.30;;;6.60;99.90;;;;;;6175490;23;20366;-87
2023/03/26 06:18:57;;;;;;;14.98;5.80;;;6.50;99.90;;;;;;6179154;23;20339;-89
2023/03/26 06:21:23;;;;;;;13.57;5.68;;;6.60;99.90;;;;;;6178641;23;20012;-89
2023/03/26 06:23:50;;;;;;;12.40;5.47;;;6.60;99.90;;;;;;6176527;23;20021;-88
2023/03/26 06:26:16;;;;;;;16.02;6.43;;;6.60;99.90;;;;;;6175471;23;20031;-89
2023/03/26 06:28:41;;;;;;;12.90;5.82;;;6.70;99.90;;;;;;6178617;23;20033;-88
2023/03/26 06:31:07;;;;;;;12.05;3.47;;;6.70;99.90;;;;;;6175651;23;20442;-91
2023/03/26 06:33:33;;;;;;;9.73;3.35;;;6.70;99.90;;;;;;6177682;23;20013;-95
2023/03/26 06:35:58;;;;;;;12.13;6.13;;;6.70;99.90;;;;;;6176646;23;20040;-89
2023/03/26 06:38:24;;;;;;;15.50;6.57;;;6.80;99.90;;;;;;6177121;23;20044;-90
2023/03/26 06:40:50;;;;;;;18.05;6.63;;;6.90;99.90;;;;;;6153231;23;20017;-93
2023/03/26 06:43:15;;;;;;;15.40;5.85;;;7.00;99.90;;;;;;6179025;23;20067;-95
2023/03/26 06:45:41;;;;;;;11.77;6.15;;;7.00;99.90;;;;;;6152463;23;20013;-92
2023/03/26 06:48:07;;;;;;;15.50;6.03;;;7.10;99.90;;;;;;6177735;23;20101;-90
2023/03/26 06:50:33;;;;;;;16.05;6.70;;;7.20;99.90;;;;;;6178245;23;20017;-92
2023/03/26 06:52:59;;;;;;;14.07;5.63;;;7.10;99.90;;;;;;6177795;23;20021;-87
2023/03/26 06:55:26;;;;;;;14.30;5.68;;;7.20;99.90;;;;;;6178130;23;20435;-88
2023/03/26 06:57:53;;;;;;;9.82;3.40;;;7.30;99.90;;;;;;6150673;23;20075;-92
2023/03/26 07:00:19;;;;;;;13.45;3.67;;;7.30;99.90;;;;;;6175038;23;20021;-86
2023/03/26 07:02:45;;;;;;;16.73;8.38;;;7.40;99.90;;;;;;6177336;23;20154;-87
2023/03/26 07:05:11;;;;;;;20.00;6.43;;;7.50;99.90;;;;;;6176755;23;20098;-91
2023/03/26 07:07:37;;;;;;;15.48;5.53;;;7.60;99.90;;;;;;6177817;23;20085;-89
2023/03/26 07:10:04;;;;;;;20.77;6.97;;;7.70;99.90;;;;;;6178284;23;20116;-88
2023/03/26 07:12:29;;;;;;;19.20;6.35;;;7.80;99.90;;;;;;6175639;23;20013;-88
2023/03/26 07:14:55;;;;;;;15.05;5.70;;;7.80;99.90;;;;;;6176702;23;20091;-87
2023/03/26 07:17:21;;;;;;;17.17;5.80;;;7.80;99.90;;;;;;6176564;23;20091;-87
2023/03/26 07:19:46;;;;;;;18.80;5.88;;;7.80;99.90;;;;;;6178393;23;20052;-90
2023/03/26 07:22:18;;;;;;;20.23;5.30;;;7.90;99.90;;;;;;6174993;23;20025;-88
2023/03/26 07:24:44;;;;;;;17.67;4.55;;;7.90;99.90;;;;;;6150922;23;20017;-86
2023/03/26 07:27:43;;;;;;;17.30;4.82;;;7.90;99.90;;;;;;6175039;23;20016;-87
2023/03/26 07:30:13;;;;;;;17.13;5.10;;;7.90;99.90;;;;;;6173733;23;20429;-89
2023/03/26 07:32:57;;;;;;;16.80;4.82;;;8.00;99.90;;;;;;6177384;23;20017;-87
2023/03/26 07:35:51;;;;;;;17.75;4.47;;;8.00;99.90;;;;;;6150543;23;20414;-87
2023/03/26 07:38:54;;;;;;;17.17;5.00;;;8.00;99.90;;;;;;6176512;23;20056;-86
2023/03/26 07:41:29;;;;;;;16.92;4.68;;;8.00;99.90;;;;;;6174202;23;20057;-86
2023/03/26 07:44:13;;;;;;;19.13;5.13;;;8.00;99.90;;;;;;6175427;23;20087;-88
2023/03/26 07:46:40;;;;;;;18.08;4.57;;;8.10;99.90;;;;;;6152411;23;20083;-87
2023/03/26 07:49:11;;;;;;;16.55;4.28;;;8.10;99.90;;;;;;6151694;23;20016;-94
2023/03/26 07:51:36;;;;;;;16.95;4.53;;;8.10;99.90;;;;;;6179365;23;20045;-86
2023/03/26 07:54:02;;;;;;;17.08;2.75;;;8.10;99.90;;;;;;6152562;23;20032;-85
2023/03/26 07:56:33;;;;;;;17.20;4.05;;;8.10;99.90;;;;;;6150824;23;20017;-85
2023/03/26 07:59:20;;;;;;;18.52;4.18;;;8.10;99.90;;;;;;6151871;23;20453;-85
2023/03/26 08:02:00;;;;;;;14.88;4.03;;;8.20;99.90;;;;;;6151250;23;20023;-85
2023/03/26 08:04:35;;;;;;;19.53;3.80;;;8.30;99.90;;;;;;6151901;23;20083;-85
2023/03/26 08:07:14;;;;;;;14.88;3.70;;;8.30;99.90;;;;;;6179199;23;20224;-86
2023/03/26 08:10:16;;;;;;;17.50;4.40;;;8.40;99.90;;;;;;6180083;23;20024;-86
2023/03/26 08:12:58;;;;;;;17.08;4.22;;;8.40;99.90;;;;;;6179772;23;20024;-84
2023/03/26 08:15:31;;;;;;;14.40;3.75;;;8.40;99.90;;;;;;6177950;23;20013;-86
2023/03/26 08:18:26;;;;;;;17.88;4.18;;;8.40;99.90;;;;;;6179025;23;20363;-86
2023/03/26 08:21:01;;;;;;;17.20;4.30;;;8.50;99.90;;;;;;6152175;23;20016;-86
2023/03/26 08:23:48;;;;;;;18.02;4.13;;;8.60;99.90;;;;;;6179379;23;20351;-85
2023/03/26 08:26:50;;;;;;;15.25;4.40;;;8.60;99.90;;;;;;6153182;23;20013;-86
2023/03/26 08:29:53;;;;;;;21.10;8.85;;;8.60;99.90;;;;;;6179016;23;20064;-85
2023/03/26 08:32:20;;;;;;;15.50;3.90;;;8.60;99.90;;;;;;6157598;23;20067;-84
2023/03/26 08:34:47;;;;;;;21.67;4.55;;;8.60;99.90;;;;;;6153141;23;20013;-85
2023/03/26 08:37:13;;;;;;;18.55;4.32;;;8.70;99.90;;;;;;6177599;23;20005;-88
2023/03/26 08:39:40;;;;;;;16.25;4.35;;;8.70;99.90;;;;;;6153010;23;20017;-86
2023/03/26 08:42:18;;;;;;;17.15;4.80;;;8.70;99.90;;;;;;6152542;23;20008;-85
2023/03/26 08:45:16;;;;;;;16.17;5.47;;;8.80;99.90;;;;;;6179024;23;20024;-86
2023/03/26 08:48:14;;;;;;;17.05;4.55;;;8.80;99.90;;;;;;6180416;23;20009;-85
2023/03/26 08:51:21;;;;;;;17.58;4.80;;;8.80;99.90;;;;;;6152686;23;20031;-85
2023/03/26 08:54:19;;;;;;;19.23;4.88;;;8.80;99.90;;;;;;6153573;23;20028;-86
2023/03/26 08:57:16;;;;;;;17.10;4.32;;;8.90;99.90;;;;;;6179153;23;20009;-86
2023/03/26 09:00:15;;;;;;;18.00;5.25;;;8.90;99.90;;;;;;6178913;23;20023;-85
2023/03/26 09:02:50;;;;;;;17.27;4.30;;;9.00;99.90;;;;;;6179460;23;20017;-85
2023/03/26 09:05:40;;;;;;;16.25;4.10;;;9.00;99.90;;;;;;6178491;23;20020;-85
2023/03/26 09:08:33;;;;;;;20.58;4.60;;;9.10;99.90;;;;;;6151611;23;20017;-85
2023/03/26 09:11:32;;;;;;;14.55;3.92;;;9.10;99.90;;;;;;6178275;23;20020;-85
2023/03/26 09:14:26;;;;;;;19.42;4.15;;;9.00;99.90;;;;;;6151507;23;20048;-86
2023/03/26 09:17:11;;;;;;;16.77;4.82;;;9.00;99.90;;;;;;6179707;23;20024;-86
2023/03/26 09:19:52;;;;;;;16.63;4.63;;;9.10;99.90;;;;;;6179099;23;20047;-85
2023/03/26 09:22:52;;;;;;;15.32;4.10;;;9.20;99.90;;;;;;6151607;23;20016;-86
2023/03/26 09:25:40;;;;;;;16.95;4.28;;;9.20;99.90;;;;;;6151177;23;20339;-85
2023/03/26 09:28:21;;;;;;;18.10;4.68;;;9.30;99.90;;;;;;6151265;23;20013;-86
2023/03/26 09:31:30;;;;;;;14.60;4.00;;;9.40;99.90;;;;;;6152687;23;20075;-86
2023/03/26 09:33:55;;;;;;;18.30;4.10;;;9.50;99.90;;;;;;6062439;23;20025;-87
2023/03/26 09:36:53;;;;;;;16.08;4.05;;;9.60;99.90;;;;;;6061858;23;20015;-85
2023/03/26 09:39:25;;;;;;;16.75;4.32;;;9.70;99.90;;;;;;6059800;23;20492;-84
2023/03/26 09:42:07;;;;;;;15.70;4.22;;;9.50;99.90;;;;;;6086261;23;20086;-85
2023/03/26 09:44:49;;;;;;;18.80;4.35;;;9.50;99.90;;;;;;6098583;23;20339;-85
2023/03/26 09:47:18;;;;;;;15.82;4.40;;;9.50;99.90;;;;;;6115363;23;20073;-84
2023/03/26 09:50:18;;;;;;;17.25;4.07;;;9.50;99.90;;;;;;6092162;23;20426;-84
2023/03/26 09:52:59;;;;;;;16.33;4.45;;;9.60;99.90;;;;;;6116770;23;20045;-84
2023/03/26 09:55:55;;;;;;;16.80;4.30;;;9.60;99.90;;;;;;6089817;23;20069;-85
2023/03/26 09:58:57;;;;;;;18.20;4.35;;;9.70;99.90;;;;;;6066204;23;20060;-85
2023/03/26 10:01:56;;;;;;;18.38;4.35;;;9.80;99.90;;;;;;6091458;23;20068;-85
2023/03/26 10:04:44;;;;;;;14.40;4.15;;;9.80;99.90;;;;;;6115650;23;20047;-87
2023/03/26 10:07:47;;;;;;;15.38;3.85;;;9.80;99.90;;;;;;6090413;23;20018;-85
2023/03/26 10:10:38;;;;;;;14.75;3.50;;;9.80;99.90;;;;;;6154703;23;20044;-84
2023/03/26 10:13:09;;;;;;;14.73;3.53;;;9.80;99.90;;;;;;6176305;23;20017;-85
2023/03/26 10:15:45;;;;;;;15.52;6.15;;;9.90;99.90;;;;;;6177527;23;20013;-84
2023/03/26 10:18:16;;;;;;;14.80;3.55;;;9.90;99.90;;;;;;6175179;23;20068;-86
2023/03/26 10:20:59;;;;;;;13.13;3.60;;;9.80;99.90;;;;;;6176495;23;20009;-85
2023/03/26 10:23:44;;;;;;;13.52;3.70;;;9.90;99.90;;;;;;6176457;23;20429;-85
2023/03/26 10:26:29;;;;;;;14.68;3.33;;;9.90;99.90;;;;;;6174406;23;20024;-85
2023/03/26 10:29:15;;;;;;;12.55;3.28;;;10.00;99.90;;;;;;6176775;23;20013;-84
2023/03/26 10:32:17;;;;;;;13.20;3.47;;;10.00;99.90;;;;;;6176499;23;20024;-84
2023/03/26 10:35:06;;;;;;;13.88;3.35;;;10.10;99.90;;;;;;6147022;23;20017;-84
2023/03/26 10:37:46;;;;;;;14.52;3.25;;;10.20;99.90;;;;;;6176511;23;20036;-84
2023/03/26 10:40:21;;;;;;;11.70;3.25;;;10.30;99.90;;;;;;6174296;23;20009;-85
2023/03/26 10:42:54;;;;;;;12.20;3.17;;;10.20;99.90;;;;;;6178068;23;20342;-84
2023/03/26 10:45:43;;;;;;;13.35;3.33;;;10.20;99.90;;;;;;6175404;23;20450;-84
2023/03/26 10:48:46;;;;;;;13.95;3.38;;;10.30;99.90;;;;;;6177268;23;20025;-84
2023/03/26 10:51:35;;;;;;;12.35;3.85;;;10.30;99.90;;;;;;6173940;23;20020;-84
2023/03/26 10:54:36;;;;;;;13.32;3.83;;;10.20;99.90;;;;;;6174917;23;20013;-85
2023/03/26 10:57:15;;;;;;;18.23;3.78;;;10.10;99.90;;;;;;6090459;23;20043;-85
2023/03/26 10:59:41;;;;;;;14.27;3.67;;;10.10;99.90;;;;;;6116309;23;20068;-84
2023/03/26 11:02:29;;;;;;;14.75;3.40;;;10.20;99.90;;;;;;6114864;23;20022;-85
2023/03/26 11:05:01;;;;;;;16.38;4.00;;;10.20;99.90;;;;;;6116346;23;20090;-85
2023/03/26 11:07:50;;;;;;;14.35;3.47;;;10.30;99.90;;;;;;6115066;23;20053;-85
2023/03/26 11:10:44;;;;;;;14.07;4.07;;;10.40;99.90;;;;;;6113201;23;20080;-84
2023/03/26 11:13:18;;;;;;;14.50;3.38;;;10.50;99.90;;;;;;6114939;23;20021;-85
2023/03/26 11:16:04;;;;;;;11.75;3.30;;;10.60;99.90;;;;;;6115439;23;20073;-85
2023/03/26 11:18:57;;;;;;;12.80;3.10;;;10.70;99.90;;;;;;6091165;23;20010;-86
2023/03/26 11:21:35;;;;;;;12.65;3.25;;;10.70;99.90;;;;;;6116684;23;20088;-85
2023/03/26 11:24:22;;;;;;;12.35;3.20;;;10.70;99.90;;;;;;6090204;23;20014;-85
2023/03/26 11:26:55;;;;;;;14.15;3.30;;;10.70;99.90;;;;;;6069533;23;20014;-85
2023/03/26 11:29:43;;;;;;;13.77;3.30;;;10.50;99.90;;;;;;6117748;23;20018;-86
2023/03/26 11:32:16;;;;;;;13.45;3.30;;;10.50;99.90;;;;;;6091939;23;20367;-86
2023/03/26 11:34:53;;;;;;;10.80;3.30;;;10.30;99.90;;;;;;6180491;23;20075;-84
2023/03/26 11:37:28;;;;;;;13.13;3.60;;;10.40;99.90;;;;;;6177600;23;20005;-85
2023/03/26 11:39:57;;;;;;;11.35;3.40;;;10.30;99.90;;;;;;6179637;23;20009;-85
2023/03/26 11:42:23;;;;;;;13.63;3.35;;;10.30;99.90;;;;;;6177885;23;20079;-85
2023/03/26 11:44:58;;;;;;;12.95;3.08;;;10.20;99.90;;;;;;6179707;23;20009;-84
2023/03/26 11:47:42;;;;;;;14.65;3.42;;;10.20;99.90;;;;;;6153460;23;20100;-85
2023/03/26 11:50:16;;;;;;;14.75;4.82;;;10.20;99.90;;;;;;6152802;23;20024;-84
2023/03/26 11:52:42;;;;;;;16.73;4.40;;;10.00;99.90;;;;;;6179263;23;20017;-83
2023/03/26 11:55:11;;;;;;;13.73;4.40;;;10.00;99.90;;;;;;6178773;23;20017;-84
2023/03/26 11:57:41;;;;;;;15.00;4.38;;;10.00;99.90;;;;;;6153599;23;20013;-84
2023/03/26 12:00:16;;;;;;;13.95;4.53;;;10.10;99.90;;;;;;6152623;23;20013;-84
2023/03/26 12:02:44;;;;;;;17.25;5.55;;;10.10;99.90;;;;;;6178989;23;20053;-87
2023/03/26 12:05:13;;;;;;;15.77;3.50;;;10.10;99.90;;;;;;6151383;23;20016;-84
2023/03/26 12:07:45;;;;;;;13.82;4.10;;;10.10;99.90;;;;;;6148088;23;20017;-84
2023/03/26 12:10:36;;;;;;;13.38;3.83;;;10.20;99.90;;;;;;6150978;23;20027;-83
2023/03/26 12:13:38;;;;;;;16.25;3.63;;;10.20;99.90;;;;;;6178906;23;20021;-84
2023/03/26 12:16:08;;;;;;;13.32;3.58;;;10.20;99.90;;;;;;6151881;23;20009;-84
2023/03/26 12:18:35;;;;;;;17.33;4.60;;;10.20;99.90;;;;;;6152749;23;20039;-83
2023/03/26 12:21:17;;;;;;;12.27;4.70;;;10.20;99.90;;;;;;6151703;23;20016;-84
2023/03/26 12:23:49;;;;;;;15.13;4.88;;;10.20;99.90;;;;;;6152896;23;20020;-85
2023/03/26 12:26:17;;;;;;;15.45;5.45;;;10.30;99.90;;;;;;6178460;23;20066;-83
2023/03/26 12:28:45;;;;;;;12.35;4.28;;;10.20;99.90;;;;;;6152462;23;20009;-84
2023/03/26 12:31:16;;;;;;;12.63;3.70;;;10.10;99.90;;;;;;6127059;23;20013;-84
2023/03/26 12:33:43;;;;;;;13.32;3.65;;;10.10;99.90;;;;;;6179536;23;20013;-84
2023/03/26 12:36:24;;;;;;;15.98;4.78;;;10.00;99.90;;;;;;6148621;23;20013;-84
2023/03/26 12:38:50;;;;;;;13.82;4.05;;;10.10;99.90;;;;;;6179569;23;20012;-84
2023/03/26 12:41:18;;;;;;;14.30;4.00;;;10.10;99.90;;;;;;6178550;23;20009;-83
2023/03/26 12:43:53;;;;;;;18.65;3.85;;;10.00;99.90;;;;;;6152249;23;20013;-84
2023/03/26 12:46:34;;;;;;;11.85;3.42;;;10.00;99.90;;;;;;6152194;23;20021;-84
2023/03/26 12:49:04;;;;;;;13.02;3.70;;;10.00;99.90;;;;;;6151802;23;20500;-84
2023/03/26 12:51:42;;;;;;;25.17;15.27;;;9.90;99.90;;;;;;6150698;23;20021;-84
2023/03/26 12:54:44;;;;;;;14.48;4.10;;;9.90;99.90;;;;;;6150722;23;20013;-84
2023/03/26 12:57:19;;;;;;;19.27;12.73;;;9.80;99.90;;;;;;6151561;23;20013;-84
2023/03/26 13:00:20;;;;;;;13.95;7.78;;;9.70;99.90;;;;;;6156035;23;20473;-83
2023/03/26 13:03:30;;;;;;;13.98;5.05;;;9.60;99.90;;;;;;6160403;23;20009;-84
2023/03/26 13:06:01;;;;;;;14.00;3.58;;;9.50;99.90;;;;;;6138979;23;20316;-85
2023/03/26 13:08:31;;;;;;;13.65;4.28;;;9.50;99.90;;;;;;6184615;23;20020;-84
2023/03/26 13:11:14;;;;;;;15.35;5.85;;;9.50;99.90;;;;;;6156048;23;20013;-84
2023/03/26 13:13:40;;;;;;;15.27;3.85;;;9.60;99.90;;;;;;6154395;23;20021;-84
2023/03/26 13:16:29;;;;;;;13.60;3.47;;;9.70;99.90;;;;;;6180170;23;20024;-83
2023/03/26 13:19:11;;;;;;;12.95;3.38;;;9.80;99.90;;;;;;6153276;23;20088;-84
2023/03/26 13:21:47;;;;;;;12.60;2.88;;;9.80;99.90;;;;;;6153699;23;20020;-83
2023/03/26 13:24:32;;;;;;;11.50;2.67;;;9.90;99.90;;;;;;6179548;23;20040;-85